Aérodrome :
LOGIN :

S'inscrire | Disclaimer

   EN    FR    IT 

 










Légende :    VFR   VFR Marginal   IFR   IFR Intensif   IFR Très Intensif
Visi : 
Plafond : 
>= 8 km
>= 3000ft
5 à 8 km
1000 à 3000 ft
1500m à 5 km
500 à 1000 ft
800 à 1500m
200 à 500 ft
< 800m
< 200 ft
Symboles :   Orages  Brouillard  Fortes neiges  Fortes précipitations  Vent > 20 kt
SIGMETs :   Divers  Orages  Givrage  Turbulence  Onde Orograph.  Cendres Volcan.






- Altitude de l'aérodrome : 12 ft
- Code IATA : BCN


LEBL - Barcelone

DERNIER METAR :
  • 121800Z 25016G29KT 9999 FEW025 SCT040 12/05 Q1007 NOSIG

METARs EXPIRÉS :
  • 121730Z 26014KT 9999 FEW025 SCT045 13/05 Q1007 NOSIG
  • 121700Z 26015KT 9999 FEW025 13/04 Q1008 NOSIG
  • 121630Z 27014KT 9999 FEW020 13/04 Q1008 NOSIG
  • 121600Z 27012KT 9999 FEW020 13/04 Q1008 NOSIG
  • 121530Z 26012KT 9999 FEW020 13/05 Q1009 NOSIG

TAF TAF LEBL
Valide du 12 à 18h jusqu'au 13 à 18h UTC


121700Z 1218/1318 24010KT 9999 FEW020 TX20/1313Z TN11/1306Z
BECMG 1305/1307 30015KT
PROB40
TEMPO 1310/1318 30030G43KT



MET'MAP, la Météo Aéronautique d'un coup d'oeil ! - Copyright ORBIFLY Décembre 2007 - Disclaimer

ORBIFLY MET'MAP TEAM :

Programmation & Développement : Alexandra Zaïnal
Sur une idée originale de : Baudouin d'Aumeries
Assistance à la programmation : Marc-Olivier Méhu
Soutien technique & logistique : Manuel Goepfert

Contact : metmap@orbifly.com




SOURCES & CREDITS :

   NOAA